Hauptseite
METAR-TAF:

METAR-TAF

Flughäfen :

Penn Yan Airport

Penn Yan, New York, Vereinigte Staaten

Breite: 42-38-35N, Länge: 077-02-58W, Höhe: 275 m

Beobachtung

Neuester Wetterbericht von vor 11 Minuten, um 05:00 UTC
Wind 3 kt aus Süd/Südwest
Temperatur 4°C
Luftfeuchtigkeit 87%
Luftdruck 1012 hPa
Sichtweite: 16.1 km
Aufgelockert bewölkt in der Höhe von 900 ft
Geschlossene Wolkendecke in der Höhe von 4200 ft

METAR: KPEO 140500Z AUTO 20003KT 10SM SCT009 OVC042 04/02 A2988 RMK AO2 T00390022

Zeit: 00:11 (05:11 UTC)


TAF: fehlend

Wetterbeobachtungen und Prognosen von mehr als 4000 Flughäfen (METAR und TAF Bericht).

Die verfügbaren Stationen werden durch gelbe und rote Markierungen auf der Karte dargestellt.

Führen Sie die Maus auf sie, um den Namen der Station zu sehen.

Darauf klicken, um die Beobachtung von Wetterbeobachtungen und Prognosen zu sehen.

Um die Karte zu ändern : klicken Sie auf den grünen Tasten mit einem schwarzen Kreuz Zum Vergrößern, auf den grünen Button mit einem Gedankenstrich zu verkleinern, oder auf die grünen Pfeile für benachbarte Karten.


METAR-TAF: